createdAt,value
2022-10-10T00:01:08.647Z,1017.53
2022-10-10T00:02:08.677Z,1017.50
2022-10-10T00:04:01.802Z,1017.51
2022-10-10T00:05:01.828Z,1017.54
2022-10-10T00:07:05.953Z,1017.51
2022-10-10T00:08:05.936Z,1017.48
2022-10-10T00:10:08.070Z,1017.47
2022-10-10T00:11:08.068Z,1017.47
2022-10-10T00:13:01.231Z,1017.47
2022-10-10T00:14:01.255Z,1017.46
2022-10-10T00:15:53.330Z,1017.46
2022-10-10T00:16:53.312Z,1017.48
2022-10-10T00:18:55.752Z,1017.48
2022-10-10T00:19:55.769Z,1017.42
2022-10-10T00:21:48.934Z,1017.44
2022-10-10T00:22:49.294Z,1017.43
2022-10-10T00:24:42.122Z,1017.41
2022-10-10T00:25:42.146Z,1017.40
2022-10-10T00:27:46.235Z,1017.39
2022-10-10T00:28:46.274Z,1017.35
2022-10-10T00:30:39.422Z,1017.31
2022-10-10T00:31:39.453Z,1017.31
2022-10-10T00:33:32.626Z,1017.27
2022-10-10T00:34:32.650Z,1017.27
2022-10-10T00:36:25.643Z,1017.24
2022-10-10T00:37:25.681Z,1017.21
2022-10-10T00:39:29.741Z,1017.19
2022-10-10T00:40:29.765Z,1017.19
2022-10-10T00:42:33.847Z,1017.16
2022-10-10T00:43:33.875Z,1017.20
2022-10-10T00:45:27.068Z,1017.17
2022-10-10T00:46:27.091Z,1017.16
2022-10-10T00:48:20.257Z,1017.09
2022-10-10T00:49:20.286Z,1017.12
2022-10-10T00:51:13.487Z,1017.13
2022-10-10T00:52:13.478Z,1017.09
2022-10-10T00:54:06.686Z,1017.12
2022-10-10T00:55:06.678Z,1017.11
2022-10-10T00:57:10.748Z,1017.07
2022-10-10T00:58:10.772Z,1017.06
2022-10-10T01:00:14.897Z,1017.04
2022-10-10T01:01:14.947Z,1017.07
2022-10-10T01:03:08.075Z,1017.04
2022-10-10T01:04:08.100Z,1017.02
2022-10-10T01:06:01.077Z,1016.95
2022-10-10T01:07:01.103Z,1016.99
2022-10-10T01:08:54.298Z,1016.95
2022-10-10T01:09:54.294Z,1016.98
2022-10-10T01:11:47.450Z,1016.95
2022-10-10T01:12:47.646Z,1016.98
2022-10-10T01:14:40.684Z,1016.96
2022-10-10T01:15:40.671Z,1016.97
2022-10-10T01:17:33.852Z,1016.91
2022-10-10T01:18:33.864Z,1016.89
2022-10-10T01:20:27.146Z,1016.86
2022-10-10T01:21:27.052Z,1016.85
2022-10-10T01:23:20.218Z,1016.81
2022-10-10T01:24:20.242Z,1016.79
2022-10-10T01:26:13.233Z,1016.76
2022-10-10T01:27:13.256Z,1016.78
2022-10-10T01:29:06.457Z,1016.73
2022-10-10T01:30:06.456Z,1016.71
2022-10-10T01:32:10.515Z,1016.74
2022-10-10T01:33:10.538Z,1016.70
2022-10-10T01:35:03.709Z,1016.68
2022-10-10T01:36:03.730Z,1016.70
2022-10-10T01:38:07.798Z,1016.66
2022-10-10T01:39:07.823Z,1016.63
2022-10-10T01:41:01.021Z,1016.60
2022-10-10T01:42:01.012Z,1016.59
2022-10-10T01:43:54.181Z,1016.56
2022-10-10T01:44:54.199Z,1016.55
2022-10-10T01:46:47.401Z,1016.55
2022-10-10T01:47:47.390Z,1016.53
2022-10-10T01:49:40.565Z,1016.55
2022-10-10T01:50:40.592Z,1016.49
2022-10-10T01:52:44.682Z,1016.49
2022-10-10T01:53:44.709Z,1016.48
2022-10-10T01:55:37.868Z,1016.45
2022-10-10T01:56:37.896Z,1016.46
2022-10-10T01:58:31.095Z,1016.43
2022-10-10T01:59:31.084Z,1016.40
2022-10-10T02:01:35.180Z,1016.35
2022-10-10T02:02:35.224Z,1016.40
2022-10-10T02:04:39.342Z,1016.37
2022-10-10T02:05:39.317Z,1016.41
2022-10-10T02:07:32.479Z,1016.41
2022-10-10T02:08:32.501Z,1016.33
2022-10-10T02:10:25.703Z,1016.33
2022-10-10T02:11:25.693Z,1016.25
2022-10-10T02:13:18.864Z,1016.29
2022-10-10T02:14:18.893Z,1016.32
2022-10-10T02:16:11.881Z,1016.23
2022-10-10T02:17:11.906Z,1016.24
2022-10-10T02:19:05.072Z,1016.22
2022-10-10T02:20:05.098Z,1016.18
2022-10-10T02:22:09.166Z,1016.21
2022-10-10T02:23:09.192Z,1016.22
2022-10-10T02:25:02.357Z,1016.17
2022-10-10T02:26:02.398Z,1016.17
2022-10-10T02:27:55.595Z,1016.13
2022-10-10T02:28:55.571Z,1016.10
2022-10-10T02:30:48.775Z,1016.13
2022-10-10T02:31:48.758Z,1016.13
2022-10-10T02:33:41.927Z,1016.10
2022-10-10T02:34:41.950Z,1016.05
2022-10-10T02:36:34.957Z,1016.04
2022-10-10T02:37:34.978Z,1015.99
2022-10-10T02:39:37.256Z,1016.03
2022-10-10T02:40:37.280Z,1016.00
2022-10-10T02:42:39.507Z,1016.01
2022-10-10T02:43:39.498Z,1016.03
2022-10-10T02:45:42.587Z,1016.00
2022-10-10T02:46:42.578Z,1015.98
2022-10-10T02:48:44.840Z,1015.99
2022-10-10T02:49:44.865Z,1015.98
2022-10-10T02:50:44.896Z,1015.94
2022-10-10T02:51:45.010Z,1015.97
2022-10-10T02:52:44.960Z,1015.90
2022-10-10T02:53:44.990Z,1015.92
2022-10-10T02:54:45.022Z,1015.83
2022-10-10T02:55:45.053Z,1015.85
2022-10-10T02:56:45.090Z,1015.87
2022-10-10T02:57:45.119Z,1015.84
2022-10-10T02:58:45.150Z,1015.82
2022-10-10T02:59:45.181Z,1015.82
2022-10-10T03:00:45.264Z,1015.82
2022-10-10T03:01:45.242Z,1015.77
2022-10-10T03:02:45.274Z,1015.78
2022-10-10T03:03:45.303Z,1015.78
2022-10-10T03:04:45.336Z,1015.80
2022-10-10T03:05:47.031Z,1015.73
2022-10-10T03:06:45.400Z,1015.75
2022-10-10T03:07:45.435Z,1015.73
2022-10-10T03:08:45.461Z,1015.67
2022-10-10T03:09:45.493Z,1015.71
2022-10-10T03:10:45.527Z,1015.61
2022-10-10T03:11:45.555Z,1015.65
2022-10-10T03:12:45.591Z,1015.61
2022-10-10T03:13:45.624Z,1015.60
2022-10-10T03:14:45.650Z,1015.58
2022-10-10T03:15:45.682Z,1015.51
2022-10-10T03:16:45.714Z,1015.54
2022-10-10T03:17:45.745Z,1015.49
2022-10-10T03:18:45.775Z,1015.48
2022-10-10T03:19:45.807Z,1015.47
2022-10-10T03:20:45.840Z,1015.46
2022-10-10T03:21:45.870Z,1015.49
2022-10-10T03:22:45.901Z,1015.48
2022-10-10T03:23:45.936Z,1015.45
2022-10-10T03:24:45.966Z,1015.44
2022-10-10T03:25:45.997Z,1015.50
2022-10-10T03:26:46.027Z,1015.44
2022-10-10T03:27:46.056Z,1015.45
2022-10-10T03:28:46.140Z,1015.44
2022-10-10T03:29:46.120Z,1015.42
2022-10-10T03:30:46.154Z,1015.45
2022-10-10T03:31:46.182Z,1015.45
2022-10-10T03:32:46.215Z,1015.44
2022-10-10T03:33:46.247Z,1015.39
2022-10-10T03:34:46.277Z,1015.34
2022-10-10T03:35:46.306Z,1015.35
2022-10-10T03:36:46.343Z,1015.37
2022-10-10T03:37:46.370Z,1015.33
2022-10-10T03:38:46.404Z,1015.31
2022-10-10T03:39:46.445Z,1015.33
2022-10-10T03:40:46.466Z,1015.26
2022-10-10T03:41:46.496Z,1015.28
2022-10-10T03:42:46.534Z,1015.27
2022-10-10T03:43:46.563Z,1015.28
2022-10-10T03:44:46.592Z,1015.23
2022-10-10T03:45:46.622Z,1015.26
2022-10-10T03:46:46.653Z,1015.24
2022-10-10T03:47:46.689Z,1015.24
2022-10-10T03:48:46.722Z,1015.23
2022-10-10T03:49:46.747Z,1015.24
2022-10-10T03:50:46.778Z,1015.25
2022-10-10T03:51:46.809Z,1015.24
2022-10-10T03:52:46.879Z,1015.21
2022-10-10T03:53:46.872Z,1015.16
2022-10-10T03:54:46.903Z,1015.20
2022-10-10T03:55:46.957Z,1015.17
2022-10-10T03:56:46.965Z,1015.13
2022-10-10T03:57:47.000Z,1015.10
2022-10-10T03:58:47.029Z,1015.15
2022-10-10T03:59:47.062Z,1015.08
2022-10-10T04:00:47.093Z,1015.06
2022-10-10T04:01:47.121Z,1015.04
2022-10-10T04:02:47.337Z,1015.01
2022-10-10T04:03:51.878Z,1015.03
2022-10-10T04:04:47.217Z,1015.03
2022-10-10T04:05:47.251Z,1014.98
2022-10-10T04:06:47.278Z,1014.95
2022-10-10T04:07:47.310Z,1014.94
2022-10-10T04:08:47.359Z,1014.93
2022-10-10T04:09:47.373Z,1014.90
2022-10-10T04:10:47.404Z,1014.92
2022-10-10T04:11:47.440Z,1014.92
2022-10-10T04:12:47.624Z,1014.89
2022-10-10T04:13:47.498Z,1014.88
2022-10-10T04:14:47.527Z,1014.89
2022-10-10T04:15:47.559Z,1014.87
2022-10-10T04:16:47.591Z,1014.82
2022-10-10T04:17:47.623Z,1014.83
2022-10-10T04:18:47.653Z,1014.80
2022-10-10T04:19:47.685Z,1014.84
2022-10-10T04:20:47.715Z,1014.85
2022-10-10T04:21:47.749Z,1014.76
2022-10-10T04:22:48.033Z,1014.79
2022-10-10T04:23:47.809Z,1014.79
2022-10-10T04:24:47.840Z,1014.74
2022-10-10T04:25:47.872Z,1014.76
2022-10-10T04:26:47.904Z,1014.70
2022-10-10T04:27:47.937Z,1014.69
2022-10-10T04:28:47.968Z,1014.68
2022-10-10T04:29:47.997Z,1014.66
2022-10-10T04:30:48.026Z,1014.68
2022-10-10T04:31:48.061Z,1014.66
2022-10-10T04:32:48.263Z,1014.64
2022-10-10T04:33:48.122Z,1014.64
2022-10-10T04:34:48.152Z,1014.60
2022-10-10T04:35:48.193Z,1014.63
2022-10-10T04:36:48.215Z,1014.57
2022-10-10T04:37:48.247Z,1014.59
2022-10-10T04:38:48.276Z,1014.59
2022-10-10T04:39:48.310Z,1014.58
2022-10-10T04:40:48.340Z,1014.56
2022-10-10T04:41:48.372Z,1014.57
2022-10-10T04:42:48.705Z,1014.52
2022-10-10T04:43:48.445Z,1014.51
2022-10-10T04:44:48.464Z,1014.47
2022-10-10T04:45:48.515Z,1014.45
2022-10-10T04:46:48.526Z,1014.47
2022-10-10T04:47:48.557Z,1014.44
2022-10-10T04:48:48.589Z,1014.41
2022-10-10T04:49:48.621Z,1014.40
2022-10-10T04:50:48.652Z,1014.38
2022-10-10T04:51:48.685Z,1014.36
2022-10-10T04:52:49.034Z,1014.37
2022-10-10T04:53:50.560Z,1014.40
2022-10-10T04:54:48.780Z,1014.35
2022-10-10T04:55:48.809Z,1014.32
2022-10-10T04:56:48.837Z,1014.34
2022-10-10T04:57:48.870Z,1014.32
2022-10-10T04:58:48.898Z,1014.27
2022-10-10T04:59:48.934Z,1014.24
2022-10-10T05:00:48.962Z,1014.22
2022-10-10T05:01:48.994Z,1014.24
2022-10-10T05:02:49.380Z,1014.20
2022-10-10T05:03:49.057Z,1014.16
2022-10-10T05:04:49.100Z,1014.13
2022-10-10T05:05:49.117Z,1014.13
2022-10-10T05:06:49.147Z,1014.13
2022-10-10T05:07:54.490Z,1014.06
2022-10-10T05:08:49.210Z,1014.09
2022-10-10T05:09:49.244Z,1014.03
2022-10-10T05:10:49.271Z,1013.98
2022-10-10T05:11:49.303Z,1013.96
2022-10-10T05:12:49.733Z,1013.91
2022-10-10T05:13:49.368Z,1013.92
2022-10-10T05:14:49.396Z,1013.94
2022-10-10T05:15:49.477Z,1013.84
2022-10-10T05:16:49.460Z,1013.90
2022-10-10T05:17:49.493Z,1013.87
2022-10-10T05:18:49.522Z,1013.82
2022-10-10T05:19:49.553Z,1013.90
2022-10-10T05:20:49.582Z,1013.87
2022-10-10T05:21:49.615Z,1013.87
2022-10-10T05:22:50.012Z,1013.90
2022-10-10T05:23:49.678Z,1013.87
2022-10-10T05:24:49.712Z,1013.84
2022-10-10T05:25:49.738Z,1013.82
2022-10-10T05:26:49.769Z,1013.83
2022-10-10T05:27:49.799Z,1013.85
2022-10-10T05:28:49.830Z,1013.85
2022-10-10T05:29:49.863Z,1013.80
2022-10-10T05:30:49.892Z,1013.82
2022-10-10T05:31:49.926Z,1013.81
2022-10-10T05:32:50.246Z,1013.78
2022-10-10T05:33:49.990Z,1013.75
2022-10-10T05:34:50.018Z,1013.76
2022-10-10T05:35:50.052Z,1013.71
2022-10-10T05:36:50.078Z,1013.71
2022-10-10T05:37:50.115Z,1013.68
2022-10-10T05:38:50.143Z,1013.66
2022-10-10T05:39:54.495Z,1013.72
2022-10-10T05:40:50.202Z,1013.74
2022-10-10T05:41:50.236Z,1013.72
2022-10-10T05:42:50.471Z,1013.71
2022-10-10T05:43:50.296Z,1013.70
2022-10-10T05:44:50.326Z,1013.66
2022-10-10T05:45:50.359Z,1013.66
2022-10-10T05:46:50.388Z,1013.68
2022-10-10T05:47:50.424Z,1013.69
2022-10-10T05:48:50.450Z,1013.74
2022-10-10T05:49:50.483Z,1013.76
2022-10-10T05:50:50.512Z,1013.74
2022-10-10T05:51:50.543Z,1013.73
2022-10-10T05:52:50.798Z,1013.74
2022-10-10T05:53:50.606Z,1013.74
2022-10-10T05:54:50.636Z,1013.72
2022-10-10T05:55:50.667Z,1013.71
2022-10-10T05:56:50.697Z,1013.64
2022-10-10T05:57:50.735Z,1013.59
2022-10-10T05:58:50.758Z,1013.56
2022-10-10T05:59:50.793Z,1013.67
2022-10-10T06:00:50.823Z,1013.64
2022-10-10T06:01:50.853Z,1013.71
2022-10-10T06:02:51.283Z,1013.67
2022-10-10T06:03:50.922Z,1013.65
2022-10-10T06:04:50.946Z,1013.67
2022-10-10T06:05:50.978Z,1013.69
2022-10-10T06:06:51.007Z,1013.68
2022-10-10T06:08:11.613Z,1013.71
2022-10-10T06:08:51.072Z,1013.66
2022-10-10T06:09:51.102Z,1013.64
2022-10-10T06:10:51.132Z,1013.64
2022-10-10T06:11:51.162Z,1013.66
2022-10-10T06:12:51.539Z,1013.73
2022-10-10T06:13:51.224Z,1013.73
2022-10-10T06:14:51.263Z,1013.72
2022-10-10T06:15:51.288Z,1013.69
2022-10-10T06:16:51.319Z,1013.68
2022-10-10T06:17:51.348Z,1013.71
2022-10-10T06:18:51.377Z,1013.65
2022-10-10T06:19:51.412Z,1013.64
2022-10-10T06:20:51.439Z,1013.64
2022-10-10T06:21:51.478Z,1013.69
2022-10-10T06:22:51.757Z,1013.67
2022-10-10T06:23:51.533Z,1013.70
2022-10-10T06:24:53.127Z,1013.69
2022-10-10T06:25:51.596Z,1013.68
2022-10-10T06:26:51.624Z,1013.74
2022-10-10T06:27:51.660Z,1013.62
2022-10-10T06:28:51.686Z,1013.61
2022-10-10T06:29:51.726Z,1013.63
2022-10-10T06:30:51.752Z,1013.65
2022-10-10T06:31:51.794Z,1013.62
2022-10-10T06:32:56.467Z,1013.61
2022-10-10T06:33:51.843Z,1013.64
2022-10-10T06:34:51.874Z,1013.64
2022-10-10T06:35:51.904Z,1013.66
2022-10-10T06:36:51.938Z,1013.65
2022-10-10T06:37:51.973Z,1013.66
2022-10-10T06:38:51.996Z,1013.61
2022-10-10T06:39:52.034Z,1013.66
2022-10-10T06:40:52.059Z,1013.68
2022-10-10T06:41:52.094Z,1013.66
2022-10-10T06:42:52.556Z,1013.65
2022-10-10T06:43:52.152Z,1013.63
2022-10-10T06:44:52.182Z,1013.66
2022-10-10T06:45:52.213Z,1013.64
2022-10-10T06:46:52.250Z,1013.67
2022-10-10T06:47:52.275Z,1013.68
2022-10-10T06:48:52.306Z,1013.70
2022-10-10T06:49:52.339Z,1013.66
2022-10-10T06:50:52.370Z,1013.65
2022-10-10T06:51:52.419Z,1013.63
2022-10-10T06:52:52.819Z,1013.63
2022-10-10T06:53:52.462Z,1013.64
2022-10-10T06:54:52.492Z,1013.61
2022-10-10T06:55:52.524Z,1013.66
2022-10-10T06:56:52.561Z,1013.59
2022-10-10T06:57:52.586Z,1013.61
2022-10-10T06:58:52.616Z,1013.57
2022-10-10T06:59:52.649Z,1013.56
2022-10-10T07:00:52.676Z,1013.61
2022-10-10T07:01:52.760Z,1013.60
2022-10-10T07:02:53.136Z,1013.57
2022-10-10T07:03:52.792Z,1013.54
2022-10-10T07:04:52.803Z,1013.51
2022-10-10T07:05:52.836Z,1013.58
2022-10-10T07:06:52.864Z,1013.61
2022-10-10T07:07:52.896Z,1013.63
2022-10-10T07:08:52.951Z,1013.56
2022-10-10T07:09:52.960Z,1013.57
2022-10-10T07:10:52.986Z,1013.54
2022-10-10T07:11:53.032Z,1013.59
2022-10-10T07:12:53.363Z,1013.54
2022-10-10T07:13:53.081Z,1013.50
2022-10-10T07:14:53.113Z,1013.54
2022-10-10T07:15:53.143Z,1013.56
2022-10-10T07:16:53.174Z,1013.57
2022-10-10T07:17:54.429Z,1013.57
2022-10-10T07:18:53.236Z,1013.55
2022-10-10T07:19:53.266Z,1013.51
2022-10-10T07:20:53.309Z,1013.49
2022-10-10T07:21:53.330Z,1013.51
2022-10-10T07:22:53.707Z,1013.41
2022-10-10T07:23:53.394Z,1013.41
2022-10-10T07:24:53.424Z,1013.40
2022-10-10T07:25:53.454Z,1013.34
2022-10-10T07:26:59.611Z,1013.36
2022-10-10T07:27:53.516Z,1013.34
2022-10-10T07:28:53.546Z,1013.33
2022-10-10T07:29:53.584Z,1013.31
2022-10-10T07:30:53.607Z,1013.38
2022-10-10T07:31:53.639Z,1013.37
2022-10-10T07:32:53.960Z,1013.42
2022-10-10T07:33:53.705Z,1013.43
2022-10-10T07:34:53.734Z,1013.44
2022-10-10T07:35:53.770Z,1013.42
2022-10-10T07:36:53.794Z,1013.46
2022-10-10T07:37:53.831Z,1013.47
2022-10-10T07:38:53.855Z,1013.49
2022-10-10T07:39:53.951Z,1013.46
2022-10-10T07:40:53.918Z,1013.44
2022-10-10T07:41:53.953Z,1013.45
2022-10-10T07:42:54.199Z,1013.44
2022-10-10T07:43:54.012Z,1013.40
2022-10-10T07:44:54.042Z,1013.44
2022-10-10T07:45:54.121Z,1013.38
2022-10-10T07:46:54.108Z,1013.41
2022-10-10T07:47:54.504Z,1013.41
2022-10-10T07:48:54.168Z,1013.41
2022-10-10T07:49:54.201Z,1013.41
2022-10-10T07:50:54.229Z,1013.41
2022-10-10T07:51:58.611Z,1013.41
2022-10-10T07:52:54.295Z,1013.44
2022-10-10T07:53:54.326Z,1013.47
2022-10-10T07:54:54.355Z,1013.44
2022-10-10T07:55:54.408Z,1013.47
2022-10-10T07:56:54.425Z,1013.46
2022-10-10T07:57:54.838Z,1013.45
2022-10-10T07:58:54.481Z,1013.47
2022-10-10T07:59:54.512Z,1013.44
2022-10-10T08:00:54.544Z,1013.43
2022-10-10T08:01:54.685Z,1013.43
2022-10-10T08:02:54.607Z,1013.40
2022-10-10T08:03:54.638Z,1013.38
2022-10-10T08:04:54.671Z,1013.34
2022-10-10T08:05:54.701Z,1013.38
2022-10-10T08:06:54.732Z,1013.37
2022-10-10T08:07:55.085Z,1013.43
2022-10-10T08:08:54.795Z,1013.40
2022-10-10T08:09:54.827Z,1013.38
2022-10-10T08:10:54.855Z,1013.39
2022-10-10T08:11:54.891Z,1013.32
2022-10-10T08:12:54.920Z,1013.35
2022-10-10T08:13:54.953Z,1013.31
2022-10-10T08:14:54.984Z,1013.30
2022-10-10T08:15:55.020Z,1013.30
2022-10-10T08:16:55.046Z,1013.33
2022-10-10T08:17:55.079Z,1013.28
2022-10-10T08:18:55.117Z,1013.26
2022-10-10T08:19:55.141Z,1013.28
2022-10-10T08:20:55.172Z,1013.31
2022-10-10T08:21:55.204Z,1013.29
2022-10-10T08:22:55.250Z,1013.27
2022-10-10T08:23:55.266Z,1013.24
2022-10-10T08:24:55.298Z,1013.27
2022-10-10T08:25:55.330Z,1013.27
2022-10-10T08:26:55.361Z,1013.28
2022-10-10T08:27:55.398Z,1013.25
2022-10-10T08:28:55.435Z,1013.25
2022-10-10T08:29:55.457Z,1013.30
2022-10-10T08:30:55.486Z,1013.27
2022-10-10T08:31:55.534Z,1013.25
2022-10-10T08:32:55.552Z,1013.23
2022-10-10T08:33:55.582Z,1013.24
2022-10-10T08:34:55.614Z,1013.24
2022-10-10T08:35:55.643Z,1013.15
2022-10-10T08:36:55.676Z,1013.18
2022-10-10T08:37:55.708Z,1013.16
2022-10-10T08:38:55.738Z,1013.16
2022-10-10T08:39:55.769Z,1013.18
2022-10-10T08:40:55.802Z,1013.17
2022-10-10T08:41:55.833Z,1013.14
2022-10-10T08:42:56.250Z,1013.10
2022-10-10T08:43:56.015Z,1013.20
2022-10-10T08:44:55.928Z,1013.19
2022-10-10T08:45:55.960Z,1013.18
2022-10-10T08:46:55.992Z,1013.23
2022-10-10T08:47:56.056Z,1013.23
2022-10-10T08:48:56.058Z,1013.22
2022-10-10T08:49:56.089Z,1013.19
2022-10-10T08:50:56.119Z,1013.29
2022-10-10T08:52:03.367Z,1013.26
2022-10-10T08:53:49.317Z,1013.23
2022-10-10T08:54:49.342Z,1013.27
2022-10-10T08:56:42.547Z,1013.28
2022-10-10T08:57:42.539Z,1013.28
2022-10-10T08:59:35.560Z,1013.23
2022-10-10T09:00:35.588Z,1013.21
2022-10-10T09:02:38.274Z,1013.16
2022-10-10T09:03:28.794Z,1013.18
2022-10-10T09:05:21.967Z,1013.14
2022-10-10T09:06:21.998Z,1013.09
2022-10-10T09:08:14.974Z,1013.06
2022-10-10T09:09:15.002Z,1013.06
2022-10-10T09:11:08.257Z,1013.02
2022-10-10T09:12:08.235Z,1013.01
2022-10-10T09:14:01.442Z,1013.00
2022-10-10T09:15:02.846Z,1012.96
2022-10-10T09:17:05.501Z,1012.91
2022-10-10T09:18:05.539Z,1012.92
2022-10-10T09:19:58.629Z,1012.85
2022-10-10T09:20:58.936Z,1012.90
2022-10-10T09:22:51.620Z,1012.85
2022-10-10T09:23:51.639Z,1012.78
2022-10-10T09:25:55.742Z,1012.81
2022-10-10T09:26:55.735Z,1012.80
2022-10-10T09:28:59.845Z,1012.75
2022-10-10T09:29:59.866Z,1012.80
2022-10-10T09:31:52.880Z,1012.76
2022-10-10T09:32:52.881Z,1012.75
2022-10-10T09:34:57.267Z,1012.71
2022-10-10T09:35:57.263Z,1012.72
2022-10-10T09:37:50.318Z,1012.72
2022-10-10T09:38:50.311Z,1012.65
2022-10-10T09:40:43.479Z,1012.63
2022-10-10T09:41:43.509Z,1012.64
2022-10-10T09:43:36.716Z,1012.62
2022-10-10T09:44:36.710Z,1012.59
2022-10-10T09:46:29.695Z,1012.61
2022-10-10T09:47:29.723Z,1012.58
2022-10-10T09:49:33.796Z,1012.61
2022-10-10T09:50:33.822Z,1012.53
2022-10-10T09:52:27.033Z,1012.49
2022-10-10T09:53:27.024Z,1012.50
2022-10-10T09:55:20.201Z,1012.50
2022-10-10T09:56:20.229Z,1012.42
2022-10-10T09:58:13.246Z,1012.54
2022-10-10T09:59:13.241Z,1012.47
2022-10-10T10:01:06.518Z,1012.52
2022-10-10T10:02:06.470Z,1012.46
2022-10-10T10:04:11.466Z,1012.48
2022-10-10T10:04:59.669Z,1012.54
2022-10-10T10:06:52.736Z,1012.53
2022-10-10T10:07:52.687Z,1012.49
2022-10-10T10:09:45.924Z,1012.58
2022-10-10T10:10:45.924Z,1012.60
2022-10-10T10:12:39.089Z,1012.50
2022-10-10T10:13:39.119Z,1012.52
2022-10-10T10:15:32.309Z,1012.53
2022-10-10T10:16:32.336Z,1012.55
2022-10-10T10:18:25.325Z,1012.56
2022-10-10T10:19:25.359Z,1012.57
2022-10-10T10:21:18.563Z,1012.58
2022-10-10T10:22:21.333Z,1012.66
2022-10-10T10:24:11.764Z,1012.67
2022-10-10T10:25:11.790Z,1012.81
2022-10-10T10:27:05.000Z,1012.58
2022-10-10T10:28:05.071Z,1012.58
2022-10-10T10:29:57.993Z,1012.49
2022-10-10T10:30:58.026Z,1012.57
2022-10-10T10:32:51.228Z,1012.62
2022-10-10T10:33:51.265Z,1012.69
2022-10-10T10:35:44.505Z,1012.69
2022-10-10T10:36:44.475Z,1012.61
2022-10-10T10:38:37.498Z,1012.52
2022-10-10T10:39:37.498Z,1012.57
2022-10-10T10:41:41.846Z,1012.45
2022-10-10T10:42:41.862Z,1012.43
2022-10-10T10:44:35.072Z,1012.32
2022-10-10T10:45:35.069Z,1012.36
2022-10-10T10:47:28.300Z,1012.36
2022-10-10T10:48:28.283Z,1012.37
2022-10-10T10:50:21.466Z,1012.36
2022-10-10T10:51:21.602Z,1012.42
2022-10-10T10:53:14.497Z,1012.42
2022-10-10T10:54:14.538Z,1012.35
2022-10-10T10:56:07.745Z,1012.37
2022-10-10T10:57:11.121Z,1012.36
2022-10-10T10:59:38.580Z,1012.34
2022-10-10T11:00:26.214Z,1012.37
2022-10-10T11:02:05.830Z,1012.22
2022-10-10T11:03:20.915Z,1012.22
2022-10-10T11:05:21.896Z,1012.22
2022-10-10T11:05:58.242Z,1012.26
2022-10-10T11:07:51.529Z,1012.19
2022-10-10T11:08:51.476Z,1012.19
2022-10-10T11:10:44.648Z,1012.28
2022-10-10T11:11:44.644Z,1012.25
2022-10-10T11:13:37.847Z,1012.26
2022-10-10T11:14:37.881Z,1012.21
2022-10-10T11:16:47.376Z,1012.24
2022-10-10T11:17:36.253Z,1012.30
2022-10-10T11:19:35.071Z,1012.22
2022-10-10T11:20:35.110Z,1012.19
2022-10-10T11:22:28.303Z,1012.21
2022-10-10T11:23:28.359Z,1012.22
2022-10-10T11:25:21.530Z,1012.12
2022-10-10T11:26:21.569Z,1012.05
2022-10-10T11:28:14.801Z,1012.10
2022-10-10T11:29:14.803Z,1012.11
2022-10-10T11:31:07.998Z,1012.12
2022-10-10T11:32:08.097Z,1012.16
2022-10-10T11:34:01.243Z,1012.15
2022-10-10T11:35:01.283Z,1012.06
2022-10-10T11:36:54.479Z,1012.03
2022-10-10T11:37:54.519Z,1012.01
2022-10-10T11:39:47.748Z,1011.96
2022-10-10T11:40:47.754Z,1011.95
2022-10-10T11:42:51.852Z,1011.92
2022-10-10T11:43:51.891Z,1011.96
2022-10-10T11:45:44.906Z,1011.95
2022-10-10T11:46:44.951Z,1011.98
2022-10-10T11:48:38.145Z,1011.90
2022-10-10T11:49:38.189Z,1011.93
2022-10-10T11:51:31.408Z,1011.83
2022-10-10T11:52:34.462Z,1011.82
2022-10-10T11:54:24.646Z,1011.83
2022-10-10T11:55:24.689Z,1011.79
2022-10-10T11:57:17.896Z,1011.97
2022-10-10T11:58:17.939Z,1011.97
2022-10-10T12:00:11.197Z,1011.90
2022-10-10T12:01:11.177Z,1011.86
2022-10-10T12:03:04.377Z,1011.86
2022-10-10T12:04:04.420Z,1011.86
2022-10-10T12:05:57.660Z,1011.79
2022-10-10T12:06:57.479Z,1011.74
2022-10-10T12:08:50.678Z,1011.71
2022-10-10T12:09:50.715Z,1011.76
2022-10-10T12:11:43.931Z,1011.86
2022-10-10T12:12:43.957Z,1011.73
2022-10-10T12:14:48.100Z,1011.72
2022-10-10T12:15:50.131Z,1011.61
2022-10-10T12:17:52.187Z,1011.69
2022-10-10T12:18:52.228Z,1011.65
2022-10-10T12:20:45.455Z,1011.59
2022-10-10T12:21:45.508Z,1011.61
2022-10-10T12:23:49.566Z,1011.65
2022-10-10T12:24:50.307Z,1011.69
2022-10-10T12:26:42.806Z,1011.64
2022-10-10T12:27:42.847Z,1011.66
2022-10-10T12:29:50.843Z,1011.60
2022-10-10T12:30:46.985Z,1011.59
2022-10-10T12:32:40.176Z,1011.53
2022-10-10T12:33:40.217Z,1011.53
2022-10-10T12:35:33.449Z,1011.58
2022-10-10T12:36:33.455Z,1011.56
2022-10-10T12:38:26.650Z,1011.70
2022-10-10T12:39:26.690Z,1011.65
2022-10-10T12:41:30.799Z,1011.68
2022-10-10T12:42:30.842Z,1011.64
2022-10-10T12:44:24.075Z,1011.60
2022-10-10T12:45:24.085Z,1011.64
2022-10-10T12:47:17.313Z,1011.57
2022-10-10T12:48:17.325Z,1011.58
2022-10-10T12:50:10.516Z,1011.65
2022-10-10T12:51:10.557Z,1011.54
2022-10-10T12:53:03.760Z,1011.63
2022-10-10T12:54:03.804Z,1011.58
2022-10-10T12:55:56.816Z,1011.57
2022-10-10T12:56:56.862Z,1011.64
2022-10-10T12:58:50.090Z,1011.52
2022-10-10T12:59:50.098Z,1011.49
2022-10-10T13:01:43.326Z,1011.50
2022-10-10T13:02:43.340Z,1011.38
2022-10-10T13:04:47.484Z,1011.40
2022-10-10T13:05:47.488Z,1011.39
2022-10-10T13:07:40.685Z,1011.40
2022-10-10T13:08:40.724Z,1011.41
2022-10-10T13:10:33.963Z,1011.40
2022-10-10T13:11:33.962Z,1011.34
2022-10-10T13:13:38.070Z,1011.34
2022-10-10T13:14:38.111Z,1011.33
2022-10-10T13:16:33.960Z,1011.35
2022-10-10T13:17:31.173Z,1011.33
2022-10-10T13:19:24.378Z,1011.30
2022-10-10T13:20:24.403Z,1011.27
2022-10-10T13:22:17.455Z,1011.26
2022-10-10T13:23:17.459Z,1011.21
2022-10-10T13:25:10.679Z,1011.18
2022-10-10T13:26:10.717Z,1011.17
2022-10-10T13:28:03.915Z,1011.22
2022-10-10T13:29:03.948Z,1011.16
2022-10-10T13:31:08.072Z,1011.14
2022-10-10T13:32:08.073Z,1011.20
2022-10-10T13:34:12.227Z,1011.14
2022-10-10T13:35:12.230Z,1011.19
2022-10-10T13:37:05.454Z,1011.18
2022-10-10T13:38:05.458Z,1011.12
2022-10-10T13:39:58.640Z,1011.04
2022-10-10T13:40:58.729Z,1011.25
2022-10-10T13:42:51.865Z,1011.09
2022-10-10T13:43:51.900Z,1011.08
2022-10-10T13:45:44.904Z,1011.10
2022-10-10T13:46:44.944Z,1011.09
2022-10-10T13:48:49.061Z,1011.24
2022-10-10T13:49:49.093Z,1011.12
2022-10-10T13:51:42.318Z,1011.06
2022-10-10T13:52:42.316Z,1011.16
2022-10-10T13:54:35.497Z,1011.11
2022-10-10T13:55:35.536Z,1011.06
2022-10-10T13:57:28.721Z,1011.12
2022-10-10T13:58:28.755Z,1011.09
2022-10-10T14:00:21.947Z,1011.10
2022-10-10T14:01:22.027Z,1011.05
2022-10-10T14:03:15.177Z,1011.03
2022-10-10T14:04:15.214Z,1011.09
2022-10-10T14:06:08.233Z,1011.05
2022-10-10T14:07:08.265Z,1011.11
2022-10-10T14:09:01.387Z,1011.06
2022-10-10T14:10:01.390Z,1011.06
2022-10-10T14:11:54.581Z,1011.05
2022-10-10T14:12:54.608Z,1011.08
2022-10-10T14:14:47.823Z,1010.97
2022-10-10T14:15:47.824Z,1010.92
2022-10-10T14:17:41.008Z,1010.92
2022-10-10T14:18:41.044Z,1011.02
2022-10-10T14:20:45.142Z,1011.16
2022-10-10T14:21:45.175Z,1011.09
2022-10-10T14:23:38.369Z,1010.95
2022-10-10T14:24:38.406Z,1010.97
2022-10-10T14:26:31.449Z,1010.93
2022-10-10T14:27:36.255Z,1010.94
2022-10-10T14:29:24.616Z,1010.93
2022-10-10T14:30:24.644Z,1010.98
2022-10-10T14:32:28.727Z,1010.90
2022-10-10T14:33:28.759Z,1010.91
2022-10-10T14:35:21.964Z,1010.97
2022-10-10T14:36:21.964Z,1010.88
2022-10-10T14:38:14.982Z,1010.81
2022-10-10T14:39:15.015Z,1010.79
2022-10-10T14:41:19.135Z,1010.79
2022-10-10T14:42:19.138Z,1010.80
2022-10-10T14:44:23.222Z,1010.78
2022-10-10T14:45:23.249Z,1010.83
2022-10-10T14:47:16.469Z,1010.75
2022-10-10T14:48:16.493Z,1010.75
2022-10-10T14:50:20.583Z,1010.71
2022-10-10T14:51:34.312Z,1010.77
2022-10-10T14:53:13.686Z,1010.73
2022-10-10T14:54:14.333Z,1010.65